Time;durP1;ratioP1;P1;durP2;ratioP2;P2;SDS_P1;SDS_P2;PMS_P1;PMS_P2;Temp;Humidity;BMP_temperature;BMP_pressure;BME280_temperature;BME280_humidity;BME280_pressure;Samples;Min_cycle;Max_cycle;Signal;HPM_P1;HPM_P2
2023/07/17 00:02:05;;;;;;;;;;;22.60;99.90;;;;;;4977868;28;19983;-74
2023/07/17 00:04:31;;;;;;;;;;;22.50;99.90;;;;;;4983206;28;19999;-73
2023/07/17 00:06:56;;;;;;;;;;;22.50;99.90;;;;;;4987366;28;19969;-74
2023/07/17 00:09:22;;;;;;;;;;;22.50;99.90;;;;;;4976928;28;20202;-74
2023/07/17 00:11:47;;;;;;;;;;;22.40;99.90;;;;;;4987165;28;20840;-73
2023/07/17 00:14:13;;;;;;;;;;;22.40;99.90;;;;;;4985999;28;19934;-75
2023/07/17 00:16:38;;;;;;;;;;;22.40;99.90;;;;;;4980335;28;19973;-75
2023/07/17 00:19:04;;;;;;;;;;;22.30;99.90;;;;;;4989410;28;20064;-77
2023/07/17 00:21:29;;;;;;;;;;;22.30;99.90;;;;;;4992523;28;19967;-77
2023/07/17 00:23:57;;;;;;;;;;;22.30;99.90;;;;;;4991743;28;19931;-76
2023/07/17 00:26:23;;;;;;;;;;;22.30;99.90;;;;;;4987573;28;19935;-76
2023/07/17 00:28:48;;;;;;;;;;;22.30;99.90;;;;;;4989712;28;20011;-77
2023/07/17 00:31:14;;;;;;;;;;;22.30;99.90;;;;;;4987718;28;19939;-76
2023/07/17 00:33:39;;;;;;;;;;;22.30;99.90;;;;;;4994249;28;20515;-75
2023/07/17 00:36:05;;;;;;;;;;;22.30;99.90;;;;;;4994128;28;19930;-75
2023/07/17 00:38:31;;;;;;;;;;;22.30;99.90;;;;;;4992022;28;19945;-75
2023/07/17 00:40:56;;;;;;;;;;;22.30;99.90;;;;;;4990889;28;19947;-76
2023/07/17 00:43:22;;;;;;;;;;;22.30;99.90;;;;;;4995020;28;20029;-75
2023/07/17 00:45:48;;;;;;;;;;;22.20;99.90;;;;;;4990072;28;19970;-76
2023/07/17 00:48:14;;;;;;;;;;;22.20;99.90;;;;;;4991380;28;20464;-76
2023/07/17 00:50:40;;;;;;;;;;;22.10;99.90;;;;;;4986920;28;19937;-75
2023/07/17 00:53:06;;;;;;;;;;;22.10;99.90;;;;;;4991620;28;20677;-76
2023/07/17 00:55:32;;;;;;;;;;;22.10;99.90;;;;;;4990492;28;19968;-75
2023/07/17 00:57:59;;;;;;;;;;;22.10;99.90;;;;;;4986019;28;19946;-76
2023/07/17 01:00:24;;;;;;;;;;;22.10;99.90;;;;;;4990592;28;22055;-75
2023/07/17 01:02:53;;;;;;;;;;;22.10;99.90;;;;;;4983766;28;19968;-76
2023/07/17 01:05:19;;;;;;;;;;;22.00;99.90;;;;;;4985635;28;20009;-77
2023/07/17 01:07:45;;;;;;;;;;;22.00;99.90;;;;;;4986847;28;19943;-77
2023/07/17 01:10:11;;;;;;;;;;;21.90;99.90;;;;;;4985990;28;20378;-77
2023/07/17 01:12:36;;;;;;;;;;;21.90;99.90;;;;;;4987314;28;20030;-76
2023/07/17 01:15:06;;;;;;;;;;;21.80;99.90;;;;;;4992283;28;20398;-77
2023/07/17 01:17:32;;;;;;;;;;;21.80;99.90;;;;;;4985892;28;20018;-69
2023/07/17 01:19:57;;;;;;;;;;;21.80;99.90;;;;;;4985769;28;19938;-69
2023/07/17 01:22:26;;;;;;;;;;;21.80;99.90;;;;;;4987498;28;20403;-68
2023/07/17 01:24:52;;;;;;;;;;;21.80;99.90;;;;;;4990813;28;19940;-69
2023/07/17 01:27:18;;;;;;;;;;;21.70;99.90;;;;;;4995860;28;20339;-70
2023/07/17 01:29:44;;;;;;;;;;;21.70;99.90;;;;;;4986304;28;19988;-69
2023/07/17 01:32:09;;;;;;;;;;;21.70;99.90;;;;;;4988854;28;21654;-70
2023/07/17 01:34:35;;;;;;;;;;;21.60;99.90;;;;;;4992044;28;20381;-69
2023/07/17 01:37:01;;;;;;;;;;;21.60;99.90;;;;;;4990288;28;21789;-70
2023/07/17 01:39:27;;;;;;;;;;;21.60;99.90;;;;;;4989016;28;19936;-68
2023/07/17 01:41:52;;;;;;;;;;;21.70;99.90;;;;;;4991255;28;19931;-69
2023/07/17 01:44:18;;;;;;;;;;;21.70;99.90;;;;;;4991672;28;19952;-69
2023/07/17 01:46:43;;;;;;;;;;;21.70;99.90;;;;;;4995930;28;20394;-69
2023/07/17 01:49:09;;;;;;;;;;;21.70;99.90;;;;;;4989982;28;19960;-69
2023/07/17 01:51:34;;;;;;;;;;;21.70;99.90;;;;;;4989488;28;20222;-70
2023/07/17 01:54:00;;;;;;;;;;;21.70;99.90;;;;;;4981819;28;19965;-69
2023/07/17 01:56:25;;;;;;;;;;;21.70;99.90;;;;;;4989360;28;19941;-69
2023/07/17 01:58:51;;;;;;;;;;;21.60;99.90;;;;;;4977232;28;19964;-70
2023/07/17 02:01:16;;;;;;;;;;;21.60;99.90;;;;;;4992368;28;19936;-70
2023/07/17 02:03:42;;;;;;;;;;;21.70;99.90;;;;;;4992393;28;20084;-69
2023/07/17 02:06:07;;;;;;;;;;;21.60;99.90;;;;;;4975016;28;20592;-69
2023/07/17 02:08:33;;;;;;;;;;;21.70;99.90;;;;;;4993354;28;19930;-68
2023/07/17 02:10:59;;;;;;;;;;;21.70;99.90;;;;;;4992189;28;21204;-70
2023/07/17 02:13:24;;;;;;;;;;;21.60;99.90;;;;;;4986568;28;19986;-70
2023/07/17 02:15:50;;;;;;;;;;;21.60;99.90;;;;;;4988611;28;19992;-70
2023/07/17 02:18:15;;;;;;;;;;;21.60;99.90;;;;;;4989265;28;20054;-70
2023/07/17 02:20:41;;;;;;;;;;;21.60;99.90;;;;;;4989025;28;20375;-69
2023/07/17 02:23:06;;;;;;;;;;;21.50;99.90;;;;;;4994918;28;20046;-68
2023/07/17 02:25:32;;;;;;;;;;;21.50;99.90;;;;;;4990214;28;19933;-70
2023/07/17 02:27:57;;;;;;;;;;;21.50;99.90;;;;;;4994545;28;19938;-70
2023/07/17 02:30:23;;;;;;;;;;;21.50;99.90;;;;;;4984458;28;19993;-70
2023/07/17 02:32:48;;;;;;;;;;;21.50;99.90;;;;;;4988111;28;19934;-69
2023/07/17 02:35:14;;;;;;;;;;;21.40;99.90;;;;;;4988719;28;19950;-69
2023/07/17 02:37:40;;;;;;;;;;;21.30;99.90;;;;;;4975265;28;19957;-70
2023/07/17 02:40:10;;;;;;;;;;;21.30;99.90;;;;;;4992006;28;19951;-69
2023/07/17 02:42:36;;;;;;;;;;;21.30;99.90;;;;;;4985023;28;19972;-68
2023/07/17 02:45:03;;;;;;;;;;;21.30;99.90;;;;;;4988384;28;19973;-70
2023/07/17 02:47:29;;;;;;;;;;;21.20;99.90;;;;;;4975094;28;19926;-69
2023/07/17 02:49:54;;;;;;;;;;;21.30;99.90;;;;;;4982558;28;20338;-70
2023/07/17 02:52:20;;;;;;;;;;;21.30;99.90;;;;;;4990220;28;19947;-68
2023/07/17 02:54:45;;;;;;;;;;;21.30;99.90;;;;;;4988149;28;19978;-68
2023/07/17 02:57:11;;;;;;;;;;;21.30;99.90;;;;;;4990333;28;19960;-67
2023/07/17 02:59:36;;;;;;;;;;;21.30;99.90;;;;;;4988073;28;19947;-69
2023/07/17 03:02:04;;;;;;;;;;;21.20;99.90;;;;;;4990066;28;19957;-68
2023/07/17 03:04:29;;;;;;;;;;;21.20;99.90;;;;;;4988697;28;20501;-69
2023/07/17 03:06:55;;;;;;;;;;;21.20;99.90;;;;;;4986466;28;20208;-70
2023/07/17 03:09:20;;;;;;;;;;;21.10;99.90;;;;;;4987637;28;19965;-75
2023/07/17 03:11:46;;;;;;;;;;;21.10;99.90;;;;;;4988369;28;20615;-76
2023/07/17 03:14:11;;;;;;;;;;;21.10;99.90;;;;;;4989054;28;20665;-76
2023/07/17 03:16:37;;;;;;;;;;;21.10;99.90;;;;;;4989541;28;20901;-76
2023/07/17 03:19:03;;;;;;;;;;;21.10;99.90;;;;;;4990598;28;19936;-74
2023/07/17 03:21:28;;;;;;;;;;;21.10;99.90;;;;;;4985429;28;19936;-75
2023/07/17 03:23:54;;;;;;;;;;;21.10;99.90;;;;;;4987253;28;19941;-77
2023/07/17 03:26:19;;;;;;;;;;;21.10;99.90;;;;;;4992440;28;19936;-68
2023/07/17 03:28:45;;;;;;;;;;;21.10;99.90;;;;;;4990909;28;19955;-69
2023/07/17 03:31:11;;;;;;;;;;;21.10;99.90;;;;;;4986734;28;19936;-69
2023/07/17 03:33:36;;;;;;;;;;;21.10;99.90;;;;;;4991777;28;24431;-68
2023/07/17 03:36:02;;;;;;;;;;;21.00;99.90;;;;;;4986368;28;19969;-69
2023/07/17 03:38:28;;;;;;;;;;;21.00;99.90;;;;;;4987811;28;19942;-68
2023/07/17 03:40:53;;;;;;;;;;;21.00;99.90;;;;;;4983254;28;19939;-68
2023/07/17 03:43:19;;;;;;;;;;;21.00;99.90;;;;;;4993155;28;19939;-71
2023/07/17 03:45:44;;;;;;;;;;;21.00;99.90;;;;;;4985416;28;20556;-68
2023/07/17 03:48:10;;;;;;;;;;;21.10;99.90;;;;;;4987388;28;20574;-70
2023/07/17 03:50:35;;;;;;;;;;;21.10;99.90;;;;;;4985730;28;20644;-70
2023/07/17 03:53:01;;;;;;;;;;;21.10;99.90;;;;;;4982343;28;19937;-69
2023/07/17 03:55:26;;;;;;;;;;;21.10;99.90;;;;;;4991625;28;20066;-69
2023/07/17 03:57:52;;;;;;;;;;;21.20;99.90;;;;;;4988449;28;20034;-70
2023/07/17 04:00:17;;;;;;;;;;;21.30;99.90;;;;;;4983929;28;19938;-69
2023/07/17 04:02:44;;;;;;;;;;;21.40;99.90;;;;;;4980885;28;20354;-77
2023/07/17 04:05:10;;;;;;;;;;;21.40;99.90;;;;;;4984716;28;19934;-78
2023/07/17 04:07:36;;;;;;;;;;;21.40;99.90;;;;;;4987547;28;20029;-75
2023/07/17 04:10:02;;;;;;;;;;;21.50;99.90;;;;;;4990735;28;20464;-76
2023/07/17 04:12:27;;;;;;;;;;;21.50;99.90;;;;;;4989849;28;19949;-76
2023/07/17 04:14:53;;;;;;;;;;;21.60;99.90;;;;;;4985880;28;20048;-76
2023/07/17 04:17:18;;;;;;;;;;;21.60;99.90;;;;;;4987993;28;20399;-76
2023/07/17 04:19:44;;;;;;;;;;;21.60;99.90;;;;;;4987356;28;19932;-69
2023/07/17 04:22:09;;;;;;;;;;;21.70;99.90;;;;;;4971230;28;20653;-70
2023/07/17 04:24:35;;;;;;;;;;;21.80;99.90;;;;;;4991742;28;19949;-68
2023/07/17 04:27:00;;;;;;;;;;;21.90;99.90;;;;;;4989510;28;19989;-69
2023/07/17 04:29:26;;;;;;;;;;;22.00;99.90;;;;;;4986497;28;20004;-69
2023/07/17 04:31:51;;;;;;;;;;;22.10;99.90;;;;;;4988859;28;19931;-70
2023/07/17 04:34:17;;;;;;;;;;;22.20;99.90;;;;;;4980340;28;19954;-69
2023/07/17 04:36:43;;;;;;;;;;;22.30;99.90;;;;;;4972368;28;19930;-70
2023/07/17 04:39:08;;;;;;;;;;;22.40;99.90;;;;;;4988649;28;19929;-74
2023/07/17 04:41:34;;;;;;;;;;;22.50;99.90;;;;;;4988468;28;19973;-69
2023/07/17 04:43:59;;;;;;;;;;;22.60;99.90;;;;;;4990919;28;19937;-68
2023/07/17 04:46:25;;;;;;;;;;;22.70;99.90;;;;;;4987218;28;20626;-70
2023/07/17 04:48:51;;;;;;;;;;;22.70;99.90;;;;;;4986391;28;19965;-69
2023/07/17 04:51:16;;;;;;;;;;;22.80;99.90;;;;;;4988752;28;19945;-69
2023/07/17 04:53:42;;;;;;;;;;;22.90;99.90;;;;;;4990485;28;19965;-70
2023/07/17 04:56:07;;;;;;;;;;;23.10;99.90;;;;;;4991743;28;20394;-69
2023/07/17 04:58:33;;;;;;;;;;;23.20;99.90;;;;;;4989634;28;20014;-70
2023/07/17 05:00:59;;;;;;;;;;;23.20;99.90;;;;;;4987704;28;19960;-69
2023/07/17 05:03:24;;;;;;;;;;;23.30;99.90;;;;;;4988063;28;20024;-69
2023/07/17 05:05:50;;;;;;;;;;;23.50;99.90;;;;;;4990505;28;20031;-68
2023/07/17 05:08:17;;;;;;;;;;;23.60;99.90;;;;;;4992458;28;19930;-69
2023/07/17 05:10:42;;;;;;;;;;;23.70;99.90;;;;;;4991762;28;19998;-69
2023/07/17 05:13:08;;;;;;;;;;;23.80;99.90;;;;;;4994150;28;20020;-69
2023/07/17 05:15:33;;;;;;;;;;;23.90;99.90;;;;;;4986848;28;19935;-68
2023/07/17 05:17:59;;;;;;;;;;;24.00;99.90;;;;;;4995673;28;20691;-76
2023/07/17 05:20:24;;;;;;;;;;;24.10;99.90;;;;;;4989218;28;20463;-76
2023/07/17 05:22:50;;;;;;;;;;;24.20;99.90;;;;;;4992689;28;19951;-77
2023/07/17 05:25:15;;;;;;;;;;;24.30;99.90;;;;;;4989056;28;20071;-78
2023/07/17 05:27:41;;;;;;;;;;;24.40;99.90;;;;;;4991178;28;19938;-77
2023/07/17 05:30:07;;;;;;;;;;;24.50;99.90;;;;;;4988828;28;20171;-77
2023/07/17 05:32:32;;;;;;;;;;;24.60;99.90;;;;;;4995266;28;19926;-76
2023/07/17 05:34:58;;;;;;;;;;;24.70;99.90;;;;;;4991367;28;20384;-76
2023/07/17 05:37:24;;;;;;;;;;;24.80;99.90;;;;;;4989027;28;19931;-78
2023/07/17 05:39:49;;;;;;;;;;;24.90;99.90;;;;;;4992809;28;19940;-77
2023/07/17 05:42:15;;;;;;;;;;;25.10;99.90;;;;;;4986205;28;20498;-76
2023/07/17 05:44:40;;;;;;;;;;;25.20;99.90;;;;;;4982347;28;19974;-78
2023/07/17 05:47:06;;;;;;;;;;;25.30;99.90;;;;;;4986720;28;19963;-77
2023/07/17 05:49:31;;;;;;;;;;;25.30;99.90;;;;;;4997393;28;19949;-77
2023/07/17 05:51:57;;;;;;;;;;;25.50;99.90;;;;;;4994211;28;19936;-78
2023/07/17 05:54:22;;;;;;;;;;;25.60;99.90;;;;;;4994696;28;19950;-78
2023/07/17 05:56:48;;;;;;;;;;;25.70;99.90;;;;;;4988094;28;19940;-77
2023/07/17 05:59:13;;;;;;;;;;;25.80;99.90;;;;;;4993327;28;19941;-78
2023/07/17 06:01:39;;;;;;;;;;;25.90;99.90;;;;;;4994514;28;19958;-78
2023/07/17 06:04:04;;;;;;;;;;;26.00;99.90;;;;;;4995135;28;19929;-78
2023/07/17 06:06:30;;;;;;;;;;;26.10;99.90;;;;;;4996600;28;19935;-77
2023/07/17 06:08:57;;;;;;;;;;;26.10;99.90;;;;;;4990843;28;19949;-77
2023/07/17 06:11:23;;;;;;;;;;;26.10;99.90;;;;;;4993358;28;19941;-68
2023/07/17 06:13:48;;;;;;;;;;;26.20;99.90;;;;;;4990613;28;19928;-68
2023/07/17 06:16:14;;;;;;;;;;;26.30;99.90;;;;;;4987679;28;19942;-68
2023/07/17 06:18:39;;;;;;;;;;;26.40;99.90;;;;;;4997778;28;20417;-68
2023/07/17 06:21:05;;;;;;;;;;;26.50;99.90;;;;;;4997246;28;19924;-69
2023/07/17 06:23:30;;;;;;;;;;;26.50;99.90;;;;;;4983557;28;19932;-69
2023/07/17 06:25:56;;;;;;;;;;;26.60;99.90;;;;;;4995608;28;19927;-68
2023/07/17 06:28:21;;;;;;;;;;;26.70;99.90;;;;;;4998366;28;19936;-68
2023/07/17 06:30:47;;;;;;;;;;;26.80;99.90;;;;;;4992208;28;19951;-69
2023/07/17 06:33:13;;;;;;;;;;;26.80;99.90;;;;;;4997170;28;20728;-69
2023/07/17 06:35:39;;;;;;;;;;;26.70;99.90;;;;;;4991822;28;19934;-70
2023/07/17 06:38:04;;;;;;;;;;;26.70;99.90;;;;;;4995408;28;19924;-69
2023/07/17 06:40:30;;;;;;;;;;;26.70;99.90;;;;;;4999182;28;20036;-68
2023/07/17 06:42:56;;;;;;;;;;;26.80;99.90;;;;;;4992637;28;19974;-70
2023/07/17 06:45:21;;;;;;;;;;;27.00;99.90;;;;;;4987410;28;19979;-69
2023/07/17 06:47:47;;;;;;;;;;;27.20;99.90;;;;;;4987239;28;20010;-76
2023/07/17 06:50:12;;;;;;;;;;;27.30;99.90;;;;;;4985885;28;19957;-74
2023/07/17 06:52:38;;;;;;;;;;;27.40;99.90;;;;;;4963248;28;22762;-75
2023/07/17 06:55:05;;;;;;;;;;;27.40;99.90;;;;;;4975074;28;20417;-76
2023/07/17 06:57:30;;;;;;;;;;;27.60;99.90;;;;;;4990119;28;19931;-76
2023/07/17 06:59:56;;;;;;;;;;;27.60;99.90;;;;;;4989054;28;19932;-79
2023/07/17 07:02:21;;;;;;;;;;;27.80;99.90;;;;;;4990506;28;20014;-75
2023/07/17 07:04:47;;;;;;;;;;;27.80;99.90;;;;;;4992306;28;19978;-77
2023/07/17 07:07:12;;;;;;;;;;;28.00;99.90;;;;;;4987032;28;20340;-75
2023/07/17 07:09:37;;;;;;;;;;;28.00;99.90;;;;;;4982861;28;19956;-75
2023/07/17 07:12:03;;;;;;;;;;;28.10;99.90;;;;;;4983346;28;19952;-76
2023/07/17 07:14:28;;;;;;;;;;;28.10;99.90;;;;;;4989546;28;19924;-76
2023/07/17 07:16:54;;;;;;;;;;;28.10;99.90;;;;;;4990568;28;19929;-78
2023/07/17 07:19:20;;;;;;;;;;;28.20;99.90;;;;;;4989865;28;19941;-75
2023/07/17 07:21:45;;;;;;;;;;;28.30;99.90;;;;;;4986679;28;20073;-73
2023/07/17 07:24:10;;;;;;;;;;;28.30;99.90;;;;;;4991785;28;19932;-70
2023/07/17 07:26:37;;;;;;;;;;;28.40;99.90;;;;;;4989632;28;19988;-70
2023/07/17 07:29:03;;;;;;;;;;;28.50;99.90;;;;;;4985181;28;19955;-71
2023/07/17 07:31:28;;;;;;;;;;;28.60;99.90;;;;;;4986604;28;22275;-71
2023/07/17 07:33:54;;;;;;;;;;;28.70;99.90;;;;;;4989855;28;19947;-70
2023/07/17 07:36:20;;;;;;;;;;;28.80;99.90;;;;;;4988678;28;20282;-70
2023/07/17 07:38:45;;;;;;;;;;;28.90;99.90;;;;;;4991270;28;19929;-70
2023/07/17 07:41:11;;;;;;;;;;;29.00;99.90;;;;;;4987943;28;19947;-69
2023/07/17 07:43:36;;;;;;;;;;;29.00;99.90;;;;;;4989051;28;22259;-74
2023/07/17 07:46:02;;;;;;;;;;;29.00;99.90;;;;;;4987237;28;19939;-75
2023/07/17 07:48:29;;;;;;;;;;;29.10;99.90;;;;;;4989393;28;19979;-74
2023/07/17 07:50:55;;;;;;;;;;;29.10;99.90;;;;;;4983810;28;19956;-74
2023/07/17 07:53:20;;;;;;;;;;;29.20;99.90;;;;;;4988571;28;19998;-74
2023/07/17 07:55:46;;;;;;;;;;;29.30;99.90;;;;;;4988549;28;19944;-74
2023/07/17 07:58:11;;;;;;;;;;;29.40;99.90;;;;;;4989342;28;19929;-72
2023/07/17 08:00:37;;;;;;;;;;;29.50;99.90;;;;;;4988112;28;19932;-75
2023/07/17 08:03:02;;;;;;;;;;;29.50;99.90;;;;;;4986599;28;20405;-75
2023/07/17 08:05:28;;;;;;;;;;;29.60;99.90;;;;;;4969747;28;20513;-73
2023/07/17 08:07:53;;;;;;;;;;;29.60;99.90;;;;;;4988848;28;20024;-77
2023/07/17 08:10:19;;;;;;;;;;;29.70;99.90;;;;;;4988182;28;20603;-77
2023/07/17 08:12:44;;;;;;;;;;;29.70;99.90;;;;;;4979600;28;19928;-75
2023/07/17 08:15:10;;;;;;;;;;;29.80;99.90;;;;;;4981182;28;19936;-75
2023/07/17 08:17:36;;;;;;;;;;;29.80;99.90;;;;;;4988618;28;19940;-76
2023/07/17 08:20:03;;;;;;;;;;;29.90;99.90;;;;;;4987664;28;20486;-75
2023/07/17 08:22:29;;;;;;;;;;;29.90;99.90;;;;;;4968836;28;19933;-73
2023/07/17 08:24:54;;;;;;;;;;;29.90;99.90;;;;;;4983473;28;19933;-73
2023/07/17 08:27:20;;;;;;;;;;;30.00;99.90;;;;;;4979927;28;19984;-74
2023/07/17 08:29:45;;;;;;;;;;;30.10;99.90;;;;;;4985692;28;19970;-73
2023/07/17 08:32:11;;;;;;;;;;;30.10;99.90;;;;;;4984060;28;20597;-73
2023/07/17 08:34:36;;;;;;;;;;;30.10;99.90;;;;;;4980957;28;19969;-73
2023/07/17 08:37:02;;;;;;;;;;;30.20;99.90;;;;;;4984101;28;19932;-73
2023/07/17 08:39:27;;;;;;;;;;;30.10;99.90;;;;;;4983204;28;19933;-73
2023/07/17 08:41:53;;;;;;;;;;;30.20;99.90;;;;;;4986052;28;20056;-73
2023/07/17 08:44:19;;;;;;;;;;;30.30;99.90;;;;;;4986825;28;20307;-74
2023/07/17 08:46:46;;;;;;;;;;;30.30;99.90;;;;;;4989193;28;19930;-72
2023/07/17 08:49:12;;;;;;;;;;;30.20;99.90;;;;;;4991114;28;19944;-73
2023/07/17 08:51:38;;;;;;;;;;;30.20;99.90;;;;;;4981142;28;20583;-72
2023/07/17 08:54:03;;;;;;;;;;;30.30;99.90;;;;;;4969053;28;19927;-72
2023/07/17 08:56:29;;;;;;;;;;;30.40;99.90;;;;;;4987472;28;20041;-72
2023/07/17 08:58:55;;;;;;;;;;;30.40;99.90;;;;;;4970358;28;19928;-72
2023/07/17 09:01:20;;;;;;;;;;;30.50;99.90;;;;;;4986236;28;20299;-73
2023/07/17 09:03:49;;;;;;;;;;;30.60;99.90;;;;;;4979780;28;19986;-72
2023/07/17 09:06:14;;;;;;;;;;;30.60;99.90;;;;;;4976962;28;19994;-70
2023/07/17 09:08:40;;;;;;;;;;;30.60;99.90;;;;;;4980820;28;19935;-72
2023/07/17 09:11:08;;;;;;;;;;;30.70;99.90;;;;;;4983506;28;19933;-72
2023/07/17 09:13:37;;;;;;;;;;;30.80;99.90;;;;;;4981365;28;19936;-71
2023/07/17 09:16:13;;;;;;;;;;;30.80;99.90;;;;;;4983989;28;21957;-70
2023/07/17 09:18:39;;;;;;;;;;;30.80;99.90;;;;;;4987741;28;19921;-71
2023/07/17 09:21:05;;;;;;;;;;;30.90;99.90;;;;;;4984381;28;19972;-71
2023/07/17 09:23:36;;;;;;;;;;;30.90;99.90;;;;;;4981271;28;20391;-72
2023/07/17 09:26:03;;;;;;;;;;;31.00;99.90;;;;;;4984963;28;20604;-72
2023/07/17 09:28:29;;;;;;;;;;;31.10;99.90;;;;;;4989376;28;19929;-71
2023/07/17 09:31:03;;;;;;;;;;;31.10;99.90;;;;;;4979809;28;19964;-71
2023/07/17 09:33:29;;;;;;;;;;;31.20;99.90;;;;;;4983585;28;20725;-72
2023/07/17 09:35:56;;;;;;;;;;;31.20;99.90;;;;;;4984498;28;19939;-71
2023/07/17 09:38:25;;;;;;;;;;;31.30;99.90;;;;;;4984763;28;21795;-72
2023/07/17 09:40:51;;;;;;;;;;;31.30;99.90;;;;;;4979931;28;19975;-70
2023/07/17 09:43:29;;;;;;;;;;;31.40;99.90;;;;;;4982459;28;19975;-71
2023/07/17 09:45:58;;;;;;;;;;;31.40;99.90;;;;;;4980282;28;20082;-70
2023/07/17 09:48:24;;;;;;;;;;;31.50;99.90;;;;;;4982368;28;19930;-71
2023/07/17 09:50:49;;;;;;;;;;;31.50;99.90;;;;;;4982155;28;20470;-70
2023/07/17 09:53:15;;;;;;;;;;;31.60;99.90;;;;;;4984731;28;20442;-71
2023/07/17 09:55:41;;;;;;;;;;;31.60;99.90;;;;;;4982849;28;19945;-71
2023/07/17 09:58:07;;;;;;;;;;;31.60;99.90;;;;;;4987187;28;20032;-70
2023/07/17 10:00:34;;;;;;;;;;;31.50;99.90;;;;;;4984620;28;20011;-71
2023/07/17 10:02:59;;;;;;;;;;;31.30;99.90;;;;;;4937913;28;19953;-70
2023/07/17 10:05:25;;;;;;;;;;;31.40;99.90;;;;;;4953510;28;19977;-71
2023/07/17 10:07:51;;;;;;;;;;;31.50;99.90;;;;;;4962023;28;19940;-71
2023/07/17 10:10:17;;;;;;;;;;;31.40;99.90;;;;;;4964445;28;20942;-71
2023/07/17 10:12:44;;;;;;;;;;;31.40;99.90;;;;;;4966030;28;19949;-76
2023/07/17 10:15:10;;;;;;;;;;;31.50;99.90;;;;;;4962284;28;19937;-75
2023/07/17 10:17:35;;;;;;;;;;;31.60;99.90;;;;;;4960134;28;20005;-75
2023/07/17 10:20:11;;;;;;;;;;;31.70;99.90;;;;;;4964468;28;20803;-75
2023/07/17 10:22:40;;;;;;;;;;;31.80;99.90;;;;;;4962486;28;20034;-75
2023/07/17 10:25:18;;;;;;;;;;;32.00;99.90;;;;;;4961111;28;19979;-74
2023/07/17 10:28:03;;;;;;;;;;;32.00;99.90;;;;;;4947003;28;19986;-75
2023/07/17 10:30:37;;;;;;;;;;;32.20;99.90;;;;;;4961449;28;20048;-79
2023/07/17 10:33:13;;;;;;;;;;;32.30;99.90;;;;;;4963546;28;19930;-79
2023/07/17 10:35:53;;;;;;;;;;;32.30;99.90;;;;;;4968071;28;20044;-75
2023/07/17 10:38:39;;;;;;;;;;;32.20;99.90;;;;;;4966311;28;19938;-75
2023/07/17 10:41:13;;;;;;;;;;;32.20;99.90;;;;;;4962411;28;19935;-78
2023/07/17 10:43:53;;;;;;;;;;;32.20;99.90;;;;;;4972928;28;20056;-76
2023/07/17 10:46:18;;;;;;;;;;;32.00;99.90;;;;;;4965622;28;19934;-76
2023/07/17 10:48:44;;;;;;;;;;;32.00;99.90;;;;;;4966223;28;19955;-78
2023/07/17 10:51:09;;;;;;;;;;;32.10;99.90;;;;;;4965697;28;20433;-77
2023/07/17 10:53:35;;;;;;;;;;;32.10;99.90;;;;;;4968172;28;19972;-76
2023/07/17 10:56:01;;;;;;;;;;;32.10;99.90;;;;;;4964986;28;20433;-77
2023/07/17 10:58:26;;;;;;;;;;;32.10;99.90;;;;;;4964556;28;19924;-76
2023/07/17 11:00:52;;;;;;;;;;;32.30;99.90;;;;;;4960228;28;19930;-78
2023/07/17 11:03:20;;;;;;;;;;;32.30;99.90;;;;;;4985476;28;19962;-77
2023/07/17 11:05:46;;;;;;;;;;;32.30;99.90;;;;;;4984902;28;19930;-75
2023/07/17 11:08:12;;;;;;;;;;;32.30;99.90;;;;;;4982780;28;20381;-77
2023/07/17 11:10:41;;;;;;;;;;;32.20;99.90;;;;;;4984258;28;20003;-77
2023/07/17 11:13:07;;;;;;;;;;;32.20;99.90;;;;;;4985055;28;20397;-77
2023/07/17 11:15:33;;;;;;;;;;;32.30;99.90;;;;;;4978663;28;19948;-77
2023/07/17 11:18:00;;;;;;;;;;;32.50;99.90;;;;;;4986755;28;19955;-76
2023/07/17 11:20:26;;;;;;;;;;;32.50;99.90;;;;;;4984932;28;19925;-77
2023/07/17 11:22:52;;;;;;;;;;;32.50;99.90;;;;;;4988113;28;19980;-76
2023/07/17 11:25:17;;;;;;;;;;;32.50;99.80;;;;;;4982765;28;19939;-75
2023/07/17 11:27:43;;;;;;;;;;;32.60;99.90;;;;;;4987805;28;20022;-76
2023/07/17 11:30:25;;;;;;;;;;;32.60;99.90;;;;;;4979655;28;19966;-76
2023/07/17 11:32:57;;;;;;;;;;;32.60;99.90;;;;;;4987444;28;19928;-76
2023/07/17 11:35:23;;;;;;;;;;;32.70;99.90;;;;;;4988455;28;20066;-76
2023/07/17 11:37:48;;;;;;;;;;;32.70;99.90;;;;;;4970450;28;19930;-77
2023/07/17 11:40:14;;;;;;;;;;;32.80;99.90;;;;;;4980664;28;19914;-77
2023/07/17 11:42:55;;;;;;;;;;;32.80;99.90;;;;;;4986296;28;20016;-77
2023/07/17 11:45:24;;;;;;;;;;;32.80;99.90;;;;;;4980381;28;19937;-75
2023/07/17 11:47:53;;;;;;;;;;;32.90;98.80;;;;;;4981750;28;20461;-74
2023/07/17 11:50:23;;;;;;;;;;;32.90;99.60;;;;;;4986847;28;19964;-75
2023/07/17 11:52:48;;;;;;;;;;;33.00;99.90;;;;;;4985099;28;22236;-74
2023/07/17 11:55:19;;;;;;;;;;;33.00;98.80;;;;;;4983499;28;19921;-76
2023/07/17 11:57:50;;;;;;;;;;;33.00;99.90;;;;;;4983316;28;20006;-76
2023/07/17 12:00:16;;;;;;;;;;;33.00;99.30;;;;;;4982831;28;20342;-72
2023/07/17 12:02:44;;;;;;;;;;;33.00;98.40;;;;;;4976310;28;20003;-71
2023/07/17 12:05:09;;;;;;;;;;;32.90;98.60;;;;;;4979480;28;20008;-71
2023/07/17 12:07:35;;;;;;;;;;;32.90;99.00;;;;;;4974525;28;19927;-72
2023/07/17 12:10:00;;;;;;;;;;;32.90;97.30;;;;;;4962163;28;20088;-71
2023/07/17 12:12:26;;;;;;;;;;;33.00;97.60;;;;;;4969745;28;20035;-70
2023/07/17 12:14:51;;;;;;;;;;;33.00;97.10;;;;;;4974602;28;19985;-71
2023/07/17 12:17:17;;;;;;;;;;;32.80;97.60;;;;;;4980206;28;20783;-72
2023/07/17 12:19:43;;;;;;;;;;;32.70;98.50;;;;;;4970061;28;20546;-72
2023/07/17 12:22:08;;;;;;;;;;;32.60;97.60;;;;;;4978972;28;19932;-70
2023/07/17 12:24:34;;;;;;;;;;;32.70;98.00;;;;;;4981235;28;20275;-71
2023/07/17 12:27:00;;;;;;;;;;;32.80;98.40;;;;;;4976884;28;20018;-71
2023/07/17 12:29:25;;;;;;;;;;;32.90;98.50;;;;;;4984993;28;20057;-71
2023/07/17 12:31:51;;;;;;;;;;;33.00;95.90;;;;;;4979338;28;19983;-72
2023/07/17 12:34:16;;;;;;;;;;;33.00;97.30;;;;;;4981849;28;19943;-73
2023/07/17 12:36:42;;;;;;;;;;;33.00;96.80;;;;;;4981870;28;20600;-72
2023/07/17 12:39:11;;;;;;;;;;;33.10;96.60;;;;;;4986954;28;19940;-78
2023/07/17 12:41:37;;;;;;;;;;;33.10;95.90;;;;;;4995647;28;19945;-77
2023/07/17 12:44:03;;;;;;;;;;;33.00;96.40;;;;;;4988021;28;20405;-83
2023/07/17 12:46:28;;;;;;;;;;;33.10;96.40;;;;;;4985557;28;20354;-77
2023/07/17 12:48:54;;;;;;;;;;;33.10;96.30;;;;;;4992617;28;19935;-77
2023/07/17 12:51:19;;;;;;;;;;;33.00;95.50;;;;;;4971155;28;19955;-77
2023/07/17 12:53:45;;;;;;;;;;;32.90;96.40;;;;;;4987912;28;22084;-78
2023/07/17 12:56:10;;;;;;;;;;;32.80;96.80;;;;;;4993885;28;20611;-76
2023/07/17 12:58:36;;;;;;;;;;;32.80;97.40;;;;;;4987104;28;19936;-77
2023/07/17 13:01:01;;;;;;;;;;;32.80;97.70;;;;;;4991695;28;20419;-76
2023/07/17 13:03:27;;;;;;;;;;;32.80;96.00;;;;;;4989432;28;19957;-78
2023/07/17 13:05:52;;;;;;;;;;;32.80;97.10;;;;;;4985682;28;19975;-77
2023/07/17 13:08:18;;;;;;;;;;;32.90;98.00;;;;;;4996509;28;20054;-77
2023/07/17 13:10:43;;;;;;;;;;;32.80;96.50;;;;;;4991801;28;19964;-79
2023/07/17 13:13:09;;;;;;;;;;;32.60;96.10;;;;;;4996092;28;20022;-79
2023/07/17 13:15:34;;;;;;;;;;;32.30;96.30;;;;;;4997374;28;19939;-79
2023/07/17 13:18:00;;;;;;;;;;;32.20;96.40;;;;;;4999487;28;19968;-80
2023/07/17 13:20:25;;;;;;;;;;;32.10;96.70;;;;;;4988778;28;19927;-80
2023/07/17 13:22:51;;;;;;;;;;;32.00;97.30;;;;;;4985036;28;19947;-77
2023/07/17 13:25:16;;;;;;;;;;;32.00;97.60;;;;;;4989450;28;22135;-79
2023/07/17 13:27:42;;;;;;;;;;;32.00;99.90;;;;;;4989355;28;19957;-77
2023/07/17 13:30:07;;;;;;;;;;;32.00;99.90;;;;;;4989646;28;19972;-79
2023/07/17 13:32:34;;;;;;;;;;;32.10;99.90;;;;;;4991753;28;19939;-69
2023/07/17 13:34:59;;;;;;;;;;;32.20;99.90;;;;;;4994026;28;19953;-71
2023/07/17 13:37:25;;;;;;;;;;;32.00;99.90;;;;;;4998348;28;19934;-71
2023/07/17 13:39:50;;;;;;;;;;;31.60;99.90;;;;;;4985674;28;20032;-73
2023/07/17 13:42:16;;;;;;;;;;;31.20;99.90;;;;;;4986140;28;20337;-71
2023/07/17 13:44:41;;;;;;;;;;;31.00;99.90;;;;;;4984880;28;20064;-71
2023/07/17 13:47:07;;;;;;;;;;;30.90;99.90;;;;;;4981814;28;20400;-70
2023/07/17 13:49:32;;;;;;;;;;;30.80;99.90;;;;;;4985396;28;19965;-69
2023/07/17 13:51:58;;;;;;;;;;;30.80;99.90;;;;;;4988620;28;19946;-71
2023/07/17 13:54:23;;;;;;;;;;;30.70;99.90;;;;;;4990054;28;20450;-69
2023/07/17 13:56:49;;;;;;;;;;;30.70;99.90;;;;;;4979966;28;19939;-70
2023/07/17 13:59:14;;;;;;;;;;;30.70;99.90;;;;;;4985492;28;20059;-70
2023/07/17 14:01:40;;;;;;;;;;;30.60;99.90;;;;;;4984848;28;19952;-70
2023/07/17 14:04:07;;;;;;;;;;;30.50;99.90;;;;;;4977703;28;19933;-71
2023/07/17 14:06:32;;;;;;;;;;;30.40;99.90;;;;;;4980158;28;19981;-72
2023/07/17 14:08:58;;;;;;;;;;;30.40;99.90;;;;;;4975921;28;19930;-71
2023/07/17 14:11:24;;;;;;;;;;;30.40;99.90;;;;;;4971085;28;19939;-74